Burton, Illinois
Current Conditions -  °F | °C
As of 9:54 PM on Thursday 27 Nov 2014 (Local Time) from KUIN Reporting Station
Overcast Overcast  
Wind Chill: -13°   Ceiling: 11000
Heat Index: -8°   Visibility: 10mi
Dew Point: -14°   Wind: 7mph
Humidity: 62%   Direction: 110°ESE
Pressure: 30.41"   Gusts: NA
Location:  39.9317°N, 91.2953°W
Report Text: KUIN 280354Z AUTO 11006KT 10SM OVC110 M08/M14 A3041 RMK AO2 SLP309 T10781139
Loading
Personal Weather Stations






























Interactive Weather Map New forecast layout! Learn more

10-Day Weather Forecast

Advertisements
Track Severe Weather on mobile